Time;durP1;ratioP1;P1;durP2;ratioP2;P2;SDS_P1;SDS_P2;PMS_P1;PMS_P2;Temp;Humidity;BMP_temperature;BMP_pressure;BME280_temperature;BME280_humidity;BME280_pressure;Samples;Min_cycle;Max_cycle;Signal;HPM_P1;HPM_P2
2023/05/17 00:00:17;;;;;;;1.90;0.73;;;6.90;99.90;6.80;100855.00;;;;4966209;28;82883;-70
2023/05/17 00:02:43;;;;;;;1.63;0.40;;;7.00;99.90;6.70;100864.00;;;;4965804;28;102631;-70
2023/05/17 00:05:10;;;;;;;0.50;0.50;;;6.90;99.90;6.70;100866.00;;;;4969191;28;111693;-70
2023/05/17 00:07:36;;;;;;;4.17;0.90;;;7.40;99.90;6.60;100858.00;;;;4967082;28;83779;-70
2023/05/17 00:10:02;;;;;;;0.90;0.67;;;6.80;99.90;6.50;100861.00;;;;4965074;28;95242;-69
2023/05/17 00:12:28;;;;;;;0.83;0.83;;;6.70;99.90;6.40;100857.00;;;;4965569;28;98135;-70
2023/05/17 00:14:54;;;;;;;0.60;0.60;;;6.70;99.90;6.30;100853.00;;;;4966192;28;110382;-69
2023/05/17 00:17:19;;;;;;;0.67;0.57;;;6.60;99.90;6.30;100865.00;;;;4966857;28;108882;-70
2023/05/17 00:19:45;;;;;;;1.57;0.80;;;6.50;99.90;6.30;100864.00;;;;4967265;28;112969;-70
2023/05/17 00:22:11;;;;;;;0.60;0.60;;;6.50;99.90;6.20;100858.00;;;;4966475;28;111540;-70
2023/05/17 00:24:36;;;;;;;0.80;0.47;;;6.90;99.90;6.10;100858.00;;;;4967092;28;110695;-70
2023/05/17 00:27:02;;;;;;;0.50;0.47;;;6.40;99.90;6.10;100866.00;;;;4967009;28;109099;-70
2023/05/17 00:29:28;;;;;;;0.57;0.57;;;6.30;99.90;6.00;100859.00;;;;4966420;28;100460;-70
2023/05/17 00:31:53;;;;;;;0.30;0.30;;;6.20;99.90;5.90;100866.00;;;;4967997;28;111543;-70
2023/05/17 00:34:19;;;;;;;2.57;0.80;;;6.20;99.90;5.90;100857.00;;;;4967986;28;111352;-70
2023/05/17 00:36:45;;;;;;;0.67;0.60;;;6.10;99.90;5.90;100859.00;;;;4966326;28;82816;-70
2023/05/17 00:39:10;;;;;;;2.97;1.30;;;6.10;99.90;5.80;100858.00;;;;4967459;28;112022;-70
2023/05/17 00:41:36;;;;;;;0.60;0.60;;;6.10;99.90;5.80;100868.00;;;;4967699;28;90111;-69
2023/05/17 00:44:01;;;;;;;0.70;0.63;;;6.00;99.90;5.80;100863.00;;;;4967356;28;109864;-70
2023/05/17 00:46:32;;;;;;;0.80;0.57;;;6.00;99.90;5.80;100862.00;;;;4968185;28;97862;-70
2023/05/17 00:48:58;;;;;;;1.67;0.80;;;6.00;99.90;5.80;100870.00;;;;4967649;28;83015;-71
2023/05/17 00:51:23;;;;;;;0.97;0.73;;;6.00;99.90;5.80;100877.00;;;;4965809;28;112653;-72
2023/05/17 00:53:49;;;;;;;6.03;1.13;;;6.00;99.90;5.70;100871.00;;;;4966385;28;108419;-70
2023/05/17 00:56:24;;;;;;;0.90;0.90;;;5.90;99.90;5.70;100871.00;;;;4968205;28;82873;-70
2023/05/17 00:58:51;;;;;;;0.90;0.87;;;6.40;99.90;5.70;100864.00;;;;4968470;28;112457;-70
2023/05/17 01:01:17;;;;;;;0.77;0.60;;;5.90;99.90;5.70;100872.00;;;;4966238;28;105522;-70
2023/05/17 01:03:51;;;;;;;0.77;0.77;;;6.40;99.90;5.70;100873.00;;;;4967700;28;110575;-70
2023/05/17 01:06:17;;;;;;;3.60;0.77;;;6.40;99.90;5.70;100877.00;;;;4967671;28;108888;-69
2023/05/17 01:08:43;;;;;;;1.47;0.70;;;5.80;99.90;5.60;100863.00;;;;4965245;28;83828;-70
2023/05/17 01:11:42;;;;;;;1.13;0.70;;;5.80;99.90;5.60;100871.00;;;;4970682;28;112053;-70
2023/05/17 01:14:11;;;;;;;2.03;0.50;;;5.80;99.90;5.60;100862.00;;;;4965156;28;82858;-70
2023/05/17 01:16:50;;;;;;;1.57;0.90;;;5.80;99.90;5.60;100857.00;;;;4970250;28;99819;-70
2023/05/17 01:19:49;;;;;;;0.57;0.47;;;5.80;99.90;5.60;100852.00;;;;4970911;28;83448;-70
2023/05/17 01:22:34;;;;;;;0.90;0.70;;;5.80;99.90;5.60;100856.00;;;;4973748;28;82785;-70
2023/05/17 01:25:41;;;;;;;0.23;0.23;;;6.20;99.90;5.60;100868.00;;;;4970066;28;101458;-70
2023/05/17 01:28:10;;;;;;;0.53;0.40;;;5.80;99.90;5.70;100868.00;;;;4967321;28;82807;-70
2023/05/17 01:30:36;;;;;;;0.70;0.70;;;5.90;99.90;5.70;100876.00;;;;4972529;28;83367;-70
2023/05/17 01:33:03;;;;;;;0.30;0.30;;;5.90;99.90;5.60;100868.00;;;;4968399;28;82863;-70
2023/05/17 01:35:29;;;;;;;2.27;1.00;;;5.80;99.90;5.60;100869.00;;;;4964873;28;104845;-71
2023/05/17 01:37:55;;;;;;;0.27;0.27;;;5.80;99.90;5.60;100869.00;;;;4967614;28;82992;-71
2023/05/17 01:40:21;;;;;;;1.77;0.60;;;5.80;99.90;5.60;100874.00;;;;4967979;28;109016;-69
2023/05/17 01:42:57;;;;;;;1.70;1.07;;;5.80;99.90;5.60;100880.00;;;;4963118;28;106527;-69
2023/05/17 01:45:34;;;;;;;1.40;1.07;;;6.30;99.90;5.60;100886.00;;;;4973269;28;82818;-70
2023/05/17 01:48:14;;;;;;;0.77;0.63;;;5.80;99.90;5.60;100891.00;;;;4965708;28;104531;-70
2023/05/17 01:50:42;;;;;;;3.33;0.50;;;5.80;99.90;5.60;100891.00;;;;4973029;28;105482;-71
2023/05/17 01:53:17;;;;;;;0.50;0.33;;;5.80;99.90;5.60;100881.00;;;;4970693;28;111811;-70
2023/05/17 01:55:53;;;;;;;3.53;0.90;;;5.80;99.90;5.60;100888.00;;;;4968432;28;82843;-70
2023/05/17 01:58:21;;;;;;;0.40;0.40;;;5.80;99.90;5.60;100892.00;;;;4969483;28;100831;-70
2023/05/17 02:00:48;;;;;;;1.57;0.70;;;5.80;99.90;5.60;100883.00;;;;4954641;28;84339;-70
2023/05/17 02:03:18;;;;;;;0.63;0.63;;;5.80;99.90;5.60;100889.00;;;;4970523;28;83981;-70
2023/05/17 02:05:44;;;;;;;1.33;0.53;;;5.80;99.90;5.60;100897.00;;;;4970904;28;82875;-69
2023/05/17 02:08:10;;;;;;;0.30;0.30;;;5.80;99.90;5.60;100887.00;;;;4970742;28;108237;-70
2023/05/17 02:10:36;;;;;;;1.50;1.00;;;5.80;99.90;5.60;100904.00;;;;4969905;28;105479;-69
2023/05/17 02:13:02;;;;;;;0.40;0.30;;;5.80;99.90;5.70;100889.00;;;;4968614;28;110199;-69
2023/05/17 02:15:27;;;;;;;0.93;0.70;;;5.80;99.90;5.70;100895.00;;;;4968576;28;111546;-70
2023/05/17 02:17:53;;;;;;;1.07;0.90;;;6.30;99.90;5.70;100897.00;;;;4968605;28;98621;-70
2023/05/17 02:20:19;;;;;;;0.73;0.67;;;5.90;99.90;5.60;100885.00;;;;4974061;28;111991;-70
2023/05/17 02:22:45;;;;;;;1.57;0.80;;;5.90;99.90;5.60;100883.00;;;;4967613;28;83963;-71
2023/05/17 02:25:11;;;;;;;0.53;0.53;;;5.80;99.90;5.60;100888.00;;;;4966064;28;112239;-70
2023/05/17 02:27:36;;;;;;;1.60;0.67;;;5.80;99.90;5.60;100892.00;;;;4966978;28;109942;-70
2023/05/17 02:30:03;;;;;;;0.80;0.40;;;6.30;99.90;5.50;100881.00;;;;4969756;28;83330;-69
2023/05/17 02:32:29;;;;;;;0.93;0.70;;;5.80;99.90;5.40;100889.00;;;;4969171;28;82792;-70
2023/05/17 02:34:55;;;;;;;1.93;1.23;;;5.70;99.90;5.30;100890.00;;;;4974429;28;82902;-69
2023/05/17 02:37:25;;;;;;;1.47;1.20;;;5.50;99.90;5.20;100887.00;;;;4966172;28;107357;-70
2023/05/17 02:39:50;;;;;;;2.07;1.90;;;5.50;99.90;5.10;100895.00;;;;4974781;28;83679;-69
2023/05/17 02:42:16;;;;;;;2.73;2.23;;;5.40;99.90;5.10;100892.00;;;;4968261;28;110722;-69
2023/05/17 02:44:42;;;;;;;1.60;1.47;;;5.30;99.90;5.00;100900.00;;;;4966721;28;110144;-69
2023/05/17 02:47:07;;;;;;;3.23;1.77;;;5.30;99.90;5.00;100894.00;;;;4969900;28;100366;-70
2023/05/17 02:49:33;;;;;;;2.30;2.10;;;5.20;99.90;4.90;100893.00;;;;4967033;28;111718;-69
2023/05/17 02:51:59;;;;;;;5.93;1.43;;;5.20;99.90;4.90;100912.00;;;;4968647;28;112981;-70
2023/05/17 02:54:25;;;;;;;2.90;1.40;;;5.10;99.90;4.90;100907.00;;;;4969895;28;82810;-70
2023/05/17 02:56:51;;;;;;;1.10;1.00;;;5.10;99.90;4.90;100917.00;;;;4970084;28;110319;-71
2023/05/17 02:59:17;;;;;;;3.43;0.90;;;5.10;99.90;5.00;100916.00;;;;4969677;28;111085;-69
2023/05/17 03:01:42;;;;;;;0.77;0.77;;;5.20;99.90;5.00;100925.00;;;;4967007;28;83459;-70
2023/05/17 03:04:08;;;;;;;1.23;0.73;;;5.20;99.90;5.00;100935.00;;;;4966943;28;102767;-71
2023/05/17 03:06:34;;;;;;;1.47;1.27;;;5.20;99.90;5.00;100932.00;;;;4969790;28;106423;-70
2023/05/17 03:08:59;;;;;;;1.07;0.77;;;5.30;99.90;5.00;100935.00;;;;4968262;28;113034;-71
2023/05/17 03:11:25;;;;;;;1.27;0.87;;;5.20;99.90;4.90;100939.00;;;;4968066;28;111972;-70
2023/05/17 03:13:51;;;;;;;1.17;0.90;;;5.10;99.90;4.90;100932.00;;;;4967432;28;110767;-70
2023/05/17 03:16:17;;;;;;;0.77;0.77;;;5.10;99.90;4.90;100944.00;;;;4946480;27;109667;-69
2023/05/17 03:18:43;;;;;;;1.30;0.70;;;5.10;99.90;4.80;100942.00;;;;4949883;28;112649;-70
2023/05/17 03:21:09;;;;;;;0.93;0.60;;;5.10;99.90;4.80;100950.00;;;;4954156;28;89040;-70
2023/05/17 03:23:34;;;;;;;1.33;0.90;;;5.00;99.90;4.80;100941.00;;;;4949281;28;108967;-70
2023/05/17 03:26:00;;;;;;;3.97;1.30;;;5.00;99.90;4.80;100944.00;;;;4953421;28;108854;-71
2023/05/17 03:28:35;;;;;;;1.30;1.07;;;5.00;99.90;4.80;100956.00;;;;4948942;28;112246;-70
2023/05/17 03:31:00;;;;;;;0.97;0.50;;;5.00;99.90;4.80;100968.00;;;;4949188;28;113712;-70
2023/05/17 03:33:26;;;;;;;1.60;1.00;;;5.00;99.90;4.80;100968.00;;;;4947393;28;109249;-70
2023/05/17 03:35:52;;;;;;;1.37;0.80;;;5.00;99.90;4.90;100981.00;;;;4948477;28;109748;-70
2023/05/17 03:38:17;;;;;;;0.83;0.83;;;5.10;99.90;4.90;100978.00;;;;4950318;28;112189;-70
2023/05/17 03:40:43;;;;;;;1.57;0.70;;;5.00;99.90;4.90;100966.00;;;;4949865;28;83275;-70
2023/05/17 03:43:09;;;;;;;1.80;0.93;;;5.10;99.90;5.00;100971.00;;;;4947012;28;110602;-70
2023/05/17 03:45:34;;;;;;;0.77;0.77;;;5.20;99.90;5.10;100971.00;;;;4949168;28;81882;-71
2023/05/17 03:48:00;;;;;;;0.83;0.73;;;5.30;99.90;5.10;100964.00;;;;4949197;28;112483;-70
2023/05/17 03:50:26;;;;;;;0.47;0.40;;;5.30;99.90;5.10;100977.00;;;;4947313;28;111731;-70
2023/05/17 03:52:51;;;;;;;1.17;0.53;;;5.30;99.90;5.10;100992.00;;;;4948500;28;110218;-70
2023/05/17 03:55:17;;;;;;;1.00;0.63;;;5.40;99.90;5.20;100990.00;;;;4948527;28;101210;-72
2023/05/17 03:57:43;;;;;;;2.47;1.13;;;5.40;99.90;5.20;100999.00;;;;4947053;28;112013;-70
2023/05/17 04:00:10;;;;;;;1.20;0.83;;;5.40;99.90;5.30;100991.00;;;;4947765;28;82852;-70
2023/05/17 04:02:36;;;;;;;1.37;0.83;;;5.50;99.90;5.30;100980.00;;;;4947646;28;82757;-71
2023/05/17 04:05:03;;;;;;;1.27;0.93;;;6.10;99.90;5.40;100984.00;;;;4952768;28;98165;-70
2023/05/17 04:07:28;;;;;;;2.03;0.90;;;5.60;99.90;5.50;100992.00;;;;4947285;28;101536;-70
2023/05/17 04:10:01;;;;;;;1.17;0.63;;;5.70;99.90;5.40;101000.00;;;;4946505;28;112728;-70
2023/05/17 04:12:27;;;;;;;0.80;0.80;;;5.90;99.90;5.40;101001.00;;;;4946843;28;83181;-69
2023/05/17 04:14:53;;;;;;;1.27;1.17;;;5.60;99.90;5.30;101010.00;;;;4950027;28;83032;-69
2023/05/17 04:17:21;;;;;;;2.53;1.13;;;5.60;99.90;5.30;101001.00;;;;4947018;28;91401;-70
2023/05/17 04:19:47;;;;;;;1.13;0.70;;;5.50;99.90;5.20;100999.00;;;;4948286;28;114467;-71
2023/05/17 04:22:13;;;;;;;2.17;0.90;;;5.50;99.90;5.20;101007.00;;;;4949892;28;110674;-69
2023/05/17 04:24:38;;;;;;;1.47;0.73;;;5.40;99.90;5.20;100999.00;;;;4948373;28;108530;-70
2023/05/17 04:27:06;;;;;;;1.27;0.93;;;5.20;99.90;5.20;101009.00;;;;4946779;28;100286;-69
2023/05/17 04:29:31;;;;;;;1.27;1.17;;;5.40;99.90;5.20;101007.00;;;;4949636;28;83403;-69
2023/05/17 04:31:58;;;;;;;1.17;0.97;;;5.80;99.90;5.20;101004.00;;;;4948816;28;108844;-70
2023/05/17 04:34:23;;;;;;;1.23;1.13;;;6.00;99.90;5.30;101002.00;;;;4947176;28;82207;-70
2023/05/17 04:36:49;;;;;;;1.90;0.97;;;5.50;99.90;5.40;101009.00;;;;4947034;28;83087;-70
2023/05/17 04:39:16;;;;;;;1.37;0.60;;;5.60;99.90;5.40;101004.00;;;;4944696;28;83638;-70
2023/05/17 04:41:42;;;;;;;5.10;1.13;;;5.60;99.90;5.50;101014.00;;;;4944146;28;83623;-70
2023/05/17 04:44:08;;;;;;;1.23;1.13;;;5.70;99.90;5.60;100995.00;;;;4945268;28;107660;-70
2023/05/17 04:46:34;;;;;;;1.13;0.73;;;5.70;99.90;5.60;101006.00;;;;4942862;28;112570;-70
2023/05/17 04:48:59;;;;;;;7.30;2.30;;;5.80;99.90;5.70;101000.00;;;;4943296;28;98803;-70
2023/05/17 04:51:26;;;;;;;1.13;0.80;;;6.30;99.90;5.70;101003.00;;;;4947151;28;82972;-70
2023/05/17 04:53:52;;;;;;;1.50;1.20;;;5.90;99.90;5.90;101003.00;;;;4950487;28;82954;-70
2023/05/17 04:56:17;;;;;;;2.37;1.10;;;6.00;99.90;6.00;101012.00;;;;4943527;28;111764;-70
2023/05/17 04:58:43;;;;;;;1.63;1.13;;;6.10;99.90;6.10;101016.00;;;;4946723;28;96760;-70
2023/05/17 05:01:09;;;;;;;1.10;1.00;;;6.20;99.90;6.20;101021.00;;;;4946673;28;109423;-70
2023/05/17 05:03:35;;;;;;;3.50;1.17;;;6.70;99.90;6.40;101028.00;;;;4946732;28;82731;-70
2023/05/17 05:06:02;;;;;;;2.57;1.53;;;6.40;99.90;6.50;101034.00;;;;4942219;28;84998;-70
2023/05/17 05:08:29;;;;;;;4.53;1.70;;;7.10;99.90;6.70;101043.00;;;;4942056;28;84857;-70
2023/05/17 05:10:55;;;;;;;11.23;1.77;;;7.30;99.90;6.80;101031.00;;;;4943414;28;82867;-71
2023/05/17 05:13:21;;;;;;;2.00;1.47;;;6.90;99.90;7.00;101044.00;;;;4947824;28;83071;-70
2023/05/17 05:15:47;;;;;;;4.03;1.97;;;7.00;99.90;7.20;101042.00;;;;4946151;28;84124;-70
2023/05/17 05:18:12;;;;;;;3.97;1.57;;;7.60;99.90;7.30;101048.00;;;;4944170;28;111432;-71
2023/05/17 05:20:38;;;;;;;1.27;1.13;;;7.60;99.90;7.50;101037.00;;;;4946232;28;82967;-72
2023/05/17 05:23:07;;;;;;;2.43;1.50;;;7.50;99.90;7.60;101030.00;;;;4948269;28;108757;-72
2023/05/17 05:25:34;;;;;;;3.23;1.40;;;7.60;99.90;7.80;101026.00;;;;4951546;28;82935;-72
2023/05/17 05:27:59;;;;;;;1.07;0.97;;;7.70;99.90;7.90;101029.00;;;;4950531;28;83062;-70
2023/05/17 05:30:25;;;;;;;1.10;0.93;;;7.90;99.90;8.10;101017.00;;;;4949197;28;109869;-70
2023/05/17 05:32:51;;;;;;;2.67;2.30;;;8.10;99.90;8.30;101026.00;;;;4951983;28;109174;-70
2023/05/17 05:35:17;;;;;;;3.03;1.30;;;8.30;99.90;8.40;101034.00;;;;4952401;28;113790;-70
2023/05/17 05:37:44;;;;;;;1.87;1.10;;;8.40;99.90;8.50;101033.00;;;;4954787;28;83293;-72
2023/05/17 05:40:11;;;;;;;2.80;1.47;;;8.50;99.90;8.70;101035.00;;;;4951592;28;82979;-72
2023/05/17 05:42:37;;;;;;;2.13;1.23;;;8.70;99.90;8.90;101047.00;;;;4955864;28;82773;-73
2023/05/17 05:45:03;;;;;;;1.47;1.37;;;8.90;99.90;9.00;101049.00;;;;4947407;28;116975;-73
2023/05/17 05:47:29;;;;;;;2.77;1.60;;;9.00;99.90;9.10;101056.00;;;;4929254;28;88584;-71
2023/05/17 05:49:54;;;;;;;3.27;1.20;;;9.20;99.90;9.20;101053.00;;;;4949568;28;88133;-72
2023/05/17 05:52:20;;;;;;;0.70;0.70;;;9.30;99.90;9.30;101053.00;;;;4944304;28;105263;-70
2023/05/17 05:54:46;;;;;;;7.33;2.30;;;9.30;99.90;9.40;101061.00;;;;4947067;28;116528;-70
2023/05/17 05:57:12;;;;;;;5.83;2.10;;;9.50;99.90;9.60;101061.00;;;;4951721;28;89958;-70
2023/05/17 05:59:38;;;;;;;0.93;0.93;;;9.50;99.90;9.70;101076.00;;;;4943279;28;110000;-70
2023/05/17 06:02:03;;;;;;;4.47;1.00;;;9.70;99.90;9.90;101080.00;;;;4945221;28;108341;-71
2023/05/17 06:04:29;;;;;;;1.53;1.03;;;9.90;99.90;9.90;101080.00;;;;4945588;28;116010;-71
2023/05/17 06:06:55;;;;;;;3.83;1.27;;;10.00;99.90;10.10;101075.00;;;;4945097;28;116185;-71
2023/05/17 06:09:20;;;;;;;3.23;1.57;;;10.10;99.90;10.30;101080.00;;;;4946438;28;110172;-70
2023/05/17 06:11:46;;;;;;;2.17;1.40;;;10.30;99.90;10.60;101092.00;;;;4947273;28;108330;-70
2023/05/17 06:14:11;;;;;;;1.53;1.17;;;10.50;99.90;10.80;101096.00;;;;4948236;28;117604;-70
2023/05/17 06:16:37;;;;;;;3.43;1.33;;;10.70;99.90;11.10;101095.00;;;;4949047;28;117542;-70
2023/05/17 06:19:03;;;;;;;2.40;1.77;;;11.00;99.90;11.30;101090.00;;;;4947560;28;110487;-72
2023/05/17 06:21:29;;;;;;;1.63;1.30;;;11.20;99.90;11.40;101085.00;;;;4949513;28;87972;-71
2023/05/17 06:23:56;;;;;;;1.57;1.10;;;11.40;99.90;11.60;101095.00;;;;4948539;28;89177;-71
2023/05/17 06:26:22;;;;;;;2.20;1.40;;;11.60;99.90;11.70;101095.00;;;;4961036;28;89985;-71
2023/05/17 06:28:47;;;;;;;1.83;1.37;;;11.70;99.90;11.90;101100.00;;;;4948154;28;87940;-71
2023/05/17 06:31:13;;;;;;;1.97;1.30;;;11.80;99.90;12.00;101100.00;;;;4947829;28;108581;-72
2023/05/17 06:33:39;;;;;;;2.70;1.20;;;12.00;99.90;12.30;101106.00;;;;4948715;28;89044;-71
2023/05/17 06:36:05;;;;;;;3.57;1.50;;;12.20;99.90;12.50;101099.00;;;;4947155;28;88936;-72
2023/05/17 06:38:31;;;;;;;4.70;2.30;;;12.40;99.90;12.60;101096.00;;;;4946766;28;87882;-71
2023/05/17 06:40:57;;;;;;;2.93;1.67;;;12.60;99.90;12.90;101092.00;;;;4946419;28;108011;-70
2023/05/17 06:43:23;;;;;;;3.90;1.43;;;12.80;99.90;13.20;101103.00;;;;4947343;28;90054;-72
2023/05/17 06:45:49;;;;;;;2.87;1.97;;;13.00;99.90;13.40;101101.00;;;;4946796;28;118075;-70
2023/05/17 06:48:15;;;;;;;2.17;1.13;;;13.30;99.90;13.70;101110.00;;;;4946619;28;87688;-71
2023/05/17 06:50:43;;;;;;;4.70;1.47;;;13.60;99.90;13.90;101115.00;;;;4944965;28;88042;-70
2023/05/17 06:53:08;;;;;;;2.13;1.10;;;13.80;99.90;14.00;101119.00;;;;4946317;28;87903;-71
2023/05/17 06:55:35;;;;;;;6.27;2.10;;;14.00;99.90;14.30;101119.00;;;;4947059;28;118481;-71
2023/05/17 06:58:00;;;;;;;4.17;1.37;;;14.10;99.90;14.50;101127.00;;;;4946455;28;88051;-70
2023/05/17 07:00:26;;;;;;;3.10;1.50;;;14.40;99.90;14.70;101132.00;;;;4946197;28;108429;-72
2023/05/17 07:02:52;;;;;;;4.67;2.40;;;14.70;98.90;14.90;101127.00;;;;4947256;28;88967;-71
2023/05/17 07:05:18;;;;;;;1.10;0.97;;;14.80;97.80;15.10;101141.00;;;;4944871;28;118407;-71
2023/05/17 07:07:43;;;;;;;1.80;1.40;;;14.90;97.40;15.30;101130.00;;;;4950934;28;110139;-73
2023/05/17 07:10:09;;;;;;;4.68;1.10;;;15.20;96.70;15.50;101125.00;;;;4946648;28;109032;-72
2023/05/17 07:12:35;;;;;;;2.50;1.55;;;15.50;94.90;15.60;101130.00;;;;4946288;28;116160;-73
2023/05/17 07:15:01;;;;;;;1.55;1.05;;;15.50;94.10;15.80;101138.00;;;;4945337;28;95084;-73
2023/05/17 07:17:28;;;;;;;1.15;1.00;;;15.70;93.50;16.00;101134.00;;;;4945555;28;110895;-72
2023/05/17 07:19:53;;;;;;;4.63;1.73;;;15.90;92.30;16.30;101126.00;;;;4946564;28;97711;-72
2023/05/17 07:22:19;;;;;;;4.95;1.63;;;16.10;91.80;16.50;101124.00;;;;4946527;28;118050;-70
2023/05/17 07:24:45;;;;;;;3.70;1.17;;;16.40;91.10;16.80;101127.00;;;;4946049;28;118633;-71
2023/05/17 07:27:11;;;;;;;2.70;1.55;;;16.60;89.70;17.00;101142.00;;;;4946616;28;94082;-71
2023/05/17 07:29:37;;;;;;;1.45;1.08;;;16.90;87.70;17.20;101135.00;;;;4944572;28;109006;-72
2023/05/17 07:32:03;;;;;;;5.22;0.93;;;17.10;85.80;17.40;101149.00;;;;4958619;28;90343;-73
2023/05/17 07:34:30;;;;;;;2.67;1.17;;;17.30;83.30;17.60;101142.00;;;;4947129;28;106581;-70
2023/05/17 07:36:55;;;;;;;3.60;1.38;;;17.50;82.00;17.70;101156.00;;;;4945494;28;103444;-72
2023/05/17 07:39:21;;;;;;;4.63;1.00;;;17.60;79.50;17.90;101148.00;;;;4945585;28;109387;-71
2023/05/17 07:41:47;;;;;;;2.17;0.98;;;17.70;78.80;18.00;101160.00;;;;4946310;28;116795;-72
2023/05/17 07:44:12;;;;;;;1.65;1.00;;;17.90;75.40;18.00;101146.00;;;;4943785;28;116846;-72
2023/05/17 07:46:38;;;;;;;1.63;1.30;;;17.90;74.20;18.00;101150.00;;;;4947682;28;111064;-72
2023/05/17 07:49:04;;;;;;;2.78;1.02;;;18.00;72.10;18.00;101152.00;;;;4946317;28;87124;-70
2023/05/17 07:51:30;;;;;;;8.65;1.10;;;18.00;70.40;18.00;101152.00;;;;4942831;28;117971;-71
2023/05/17 07:53:56;;;;;;;1.80;1.17;;;18.00;69.50;18.10;101147.00;;;;4943080;28;88057;-71
2023/05/17 07:56:21;;;;;;;1.83;1.13;;;18.00;68.20;18.20;101157.00;;;;4942925;28;88701;-72
2023/05/17 07:58:50;;;;;;;1.02;0.93;;;18.10;69.50;18.40;101150.00;;;;4946136;28;87883;-70
2023/05/17 08:01:16;;;;;;;1.75;1.50;;;18.30;69.70;18.70;101161.00;;;;4947189;28;103612;-72
2023/05/17 08:03:46;;;;;;;1.52;1.17;;;18.50;67.60;18.80;101150.00;;;;4945132;28;116906;-73
2023/05/17 08:06:16;;;;;;;0.93;0.93;;;18.60;64.80;18.80;101161.00;;;;4946626;28;87988;-72
2023/05/17 08:08:42;;;;;;;1.52;0.70;;;18.70;63.50;18.60;101161.00;;;;4951840;28;87822;-71
2023/05/17 08:11:10;;;;;;;4.53;1.17;;;18.70;61.90;18.40;101164.00;;;;4945899;28;111425;-70
2023/05/17 08:13:36;;;;;;;2.47;1.42;;;18.60;61.50;18.30;101168.00;;;;4943182;28;87143;-71
2023/05/17 08:16:02;;;;;;;2.65;0.90;;;18.40;62.00;18.20;101169.00;;;;4945749;28;87711;-71
2023/05/17 08:18:31;;;;;;;2.53;0.90;;;18.20;60.90;17.80;101170.00;;;;4947004;28;87721;-71
2023/05/17 08:20:57;;;;;;;3.22;1.00;;;18.00;59.50;17.40;101173.00;;;;4940929;28;119492;-71
2023/05/17 08:23:23;;;;;;;1.92;1.27;;;17.70;59.60;17.20;101166.00;;;;4943066;28;118954;-72
2023/05/17 08:25:49;;;;;;;1.60;1.23;;;17.50;60.30;17.20;101174.00;;;;4943599;28;99784;-70
2023/05/17 08:28:14;;;;;;;1.60;0.88;;;17.20;62.00;17.30;101180.00;;;;4947717;28;87930;-72
2023/05/17 08:30:40;;;;;;;0.77;0.70;;;17.30;62.70;17.60;101185.00;;;;4947728;28;114916;-70
2023/05/17 08:33:08;;;;;;;7.03;1.95;;;17.50;62.80;17.70;101182.00;;;;4943290;28;88123;-71
2023/05/17 08:35:35;;;;;;;4.53;1.23;;;17.60;62.80;17.90;101182.00;;;;4946737;28;89291;-71
2023/05/17 08:38:00;;;;;;;2.95;0.90;;;17.70;63.00;18.10;101172.00;;;;4945486;28;87050;-71
2023/05/17 08:40:27;;;;;;;4.05;2.00;;;18.00;63.30;18.30;101179.00;;;;4944373;28;103137;-71
2023/05/17 08:42:53;;;;;;;0.75;0.75;;;18.10;62.20;18.50;101174.00;;;;4941953;28;108884;-71
2023/05/17 08:45:20;;;;;;;2.88;1.10;;;18.30;61.80;18.70;101176.00;;;;4946235;28;110701;-71
2023/05/17 08:47:47;;;;;;;7.75;1.25;;;18.50;61.30;18.80;101178.00;;;;4944931;28;88076;-69
2023/05/17 08:50:13;;;;;;;2.25;1.63;;;18.60;60.40;18.80;101179.00;;;;4946176;28;88991;-72
2023/05/17 08:52:44;;;;;;;1.38;0.90;;;18.70;60.10;18.80;101166.00;;;;4946498;28;87923;-71
2023/05/17 08:55:10;;;;;;;2.22;1.17;;;18.70;59.60;18.80;101166.00;;;;4942393;28;102018;-71
2023/05/17 08:57:38;;;;;;;2.17;1.15;;;18.60;59.50;18.70;101159.00;;;;4943798;28;87795;-71
2023/05/17 09:00:11;;;;;;;4.68;1.02;;;18.70;59.00;18.60;101161.00;;;;4944523;28;89087;-71
2023/05/17 09:02:39;;;;;;;1.25;1.10;;;18.60;58.70;18.20;101167.00;;;;4949192;28;87278;-71
2023/05/17 09:05:06;;;;;;;0.85;0.85;;;18.30;57.00;17.70;101168.00;;;;4945364;28;87792;-72
2023/05/17 09:07:37;;;;;;;4.65;1.85;;;17.90;57.20;17.50;101166.00;;;;4943875;28;87719;-70
2023/05/17 09:10:04;;;;;;;1.50;1.02;;;17.60;58.00;17.30;101170.00;;;;4944112;28;118529;-71
2023/05/17 09:12:34;;;;;;;2.95;1.50;;;17.40;58.60;17.20;101166.00;;;;4946330;28;88905;-70
2023/05/17 09:15:14;;;;;;;1.50;1.08;;;17.20;58.90;17.20;101169.00;;;;4945372;28;88110;-73
2023/05/17 09:17:40;;;;;;;1.95;1.10;;;17.10;58.70;17.30;101168.00;;;;4944798;28;87765;-70
2023/05/17 09:20:07;;;;;;;2.05;1.20;;;17.20;58.80;17.50;101160.00;;;;4945019;28;89333;-72
2023/05/17 09:22:34;;;;;;;1.00;0.90;;;17.30;58.90;17.60;101171.00;;;;4944355;28;88708;-70
2023/05/17 09:25:03;;;;;;;2.67;0.90;;;17.40;58.00;17.40;101162.00;;;;4945945;28;87774;-69
2023/05/17 09:27:31;;;;;;;6.70;1.00;;;17.40;57.90;17.00;101175.00;;;;4947058;28;87223;-72
2023/05/17 09:29:57;;;;;;;1.20;0.95;;;17.00;57.60;16.70;101186.00;;;;4943472;28;88457;-70
2023/05/17 09:32:23;;;;;;;0.93;0.80;;;16.80;58.50;16.50;101185.00;;;;4944117;28;88042;-72
2023/05/17 09:34:50;;;;;;;3.17;1.30;;;16.60;58.90;16.40;101186.00;;;;4943591;28;89166;-71
2023/05/17 09:37:18;;;;;;;2.58;1.08;;;16.40;59.30;16.40;101182.00;;;;4944424;28;87743;-73
2023/05/17 09:39:45;;;;;;;3.17;0.80;;;16.40;59.50;16.60;101183.00;;;;4945262;28;88438;-71
2023/05/17 09:42:13;;;;;;;2.70;0.90;;;16.50;60.00;16.80;101179.00;;;;4949885;28;88140;-71
2023/05/17 09:44:52;;;;;;;2.70;0.98;;;16.60;59.10;16.90;101174.00;;;;4943012;28;87944;-71
2023/05/17 09:47:30;;;;;;;2.20;1.20;;;16.70;59.00;17.10;101175.00;;;;4946643;28;87782;-71
2023/05/17 09:49:59;;;;;;;3.13;1.13;;;16.80;58.90;17.00;101182.00;;;;4944227;28;87922;-70
2023/05/17 09:52:30;;;;;;;2.00;0.90;;;16.90;57.90;16.90;101187.00;;;;4946814;28;88599;-73
2023/05/17 09:54:58;;;;;;;3.40;1.48;;;16.80;58.00;16.80;101184.00;;;;4944852;28;87882;-70
2023/05/17 09:57:26;;;;;;;8.88;1.27;;;16.70;58.10;16.80;101202.00;;;;4944502;28;87938;-72
2023/05/17 09:59:57;;;;;;;1.23;1.13;;;16.70;58.40;17.00;101192.00;;;;4942396;28;89131;-71
2023/05/17 10:02:31;;;;;;;1.30;1.02;;;16.80;58.20;17.20;101189.00;;;;4942581;28;89639;-71
2023/05/17 10:04:57;;;;;;;1.27;1.15;;;16.90;56.60;17.40;101186.00;;;;4948296;28;87997;-72
2023/05/17 10:07:25;;;;;;;2.13;0.90;;;17.10;56.10;17.80;101190.00;;;;4929693;28;88186;-70
2023/05/17 10:09:54;;;;;;;0.77;0.75;;;17.40;56.20;18.20;101193.00;;;;4942039;28;88156;-70
2023/05/17 10:12:30;;;;;;;1.50;1.05;;;17.80;56.20;18.70;101189.00;;;;4947531;28;88211;-71
2023/05/17 10:14:58;;;;;;;0.95;0.68;;;18.20;55.50;18.90;101182.00;;;;4951603;28;88069;-71
2023/05/17 10:17:28;;;;;;;1.50;1.27;;;18.50;54.80;18.90;101190.00;;;;4948623;28;87186;-70
2023/05/17 10:19:55;;;;;;;2.47;1.58;;;18.70;53.40;18.80;101201.00;;;;4946324;28;87728;-71
2023/05/17 10:22:21;;;;;;;3.90;1.70;;;18.60;53.10;18.40;101195.00;;;;4949085;28;88716;-71
2023/05/17 10:24:50;;;;;;;1.98;0.98;;;18.30;52.80;18.10;101196.00;;;;4945643;28;88701;-71
2023/05/17 10:27:15;;;;;;;4.70;1.70;;;18.10;53.00;18.10;101179.00;;;;4964030;28;87929;-71
2023/05/17 10:29:43;;;;;;;1.17;0.95;;;18.00;53.50;18.10;101193.00;;;;4953220;28;88402;-71
2023/05/17 10:32:12;;;;;;;1.38;1.20;;;17.90;53.40;18.00;101193.00;;;;4947892;28;89491;-71
2023/05/17 10:34:39;;;;;;;0.90;0.68;;;17.80;53.30;18.20;101193.00;;;;4951579;28;99687;-68
2023/05/17 10:37:05;;;;;;;2.28;0.95;;;17.90;53.40;18.70;101198.00;;;;4945767;28;87947;-69
2023/05/17 10:39:33;;;;;;;1.25;0.90;;;18.20;53.90;19.20;101198.00;;;;4944688;28;89044;-71
2023/05/17 10:42:02;;;;;;;2.38;0.88;;;18.60;52.90;19.80;101205.00;;;;4949008;28;87710;-75
2023/05/17 10:44:32;;;;;;;3.92;2.00;;;19.10;52.20;20.00;101199.00;;;;4951258;28;90396;-73
2023/05/17 10:46:59;;;;;;;0.70;0.70;;;19.50;50.60;20.30;101192.00;;;;4947852;28;88141;-71
2023/05/17 10:49:32;;;;;;;1.38;0.75;;;19.80;49.50;20.40;101202.00;;;;4946408;28;89701;-71
2023/05/17 10:52:20;;;;;;;2.30;1.25;;;19.90;48.50;20.60;101198.00;;;;4948417;28;88726;-72